sensor_id;sensor_type;location;lat;lon;timestamp;noise_LAeq;noise_LA_min;noise_LA_max;noise_LA01;noise_LA95
75037;Laerm;64247;51.540;5.854;2023-06-04T00:01:04;47.96;44.68;55.19;;
75037;Laerm;64247;51.540;5.854;2023-06-04T00:03:05;47.62;45.15;57.74;;
75037;Laerm;64247;51.540;5.854;2023-06-04T00:05:06;46.90;44.53;50.37;;
75037;Laerm;64247;51.540;5.854;2023-06-04T00:07:07;46.38;44.53;49.16;;
75037;Laerm;64247;51.540;5.854;2023-06-04T00:09:08;47.02;44.43;51.27;;
75037;Laerm;64247;51.540;5.854;2023-06-04T00:11:09;48.75;46.84;51.87;;
75037;Laerm;64247;51.540;5.854;2023-06-04T00:13:10;48.70;46.90;50.77;;
75037;Laerm;64247;51.540;5.854;2023-06-04T00:15:12;48.61;46.80;50.37;;
75037;Laerm;64247;51.540;5.854;2023-06-04T00:17:13;49.02;47.24;51.38;;
75037;Laerm;64247;51.540;5.854;2023-06-04T00:19:14;48.69;46.89;50.47;;
75037;Laerm;64247;51.540;5.854;2023-06-04T00:21:15;48.59;46.96;50.64;;
75037;Laerm;64247;51.540;5.854;2023-06-04T00:23:15;48.82;47.01;52.92;;
75037;Laerm;64247;51.540;5.854;2023-06-04T00:25:16;48.93;46.78;51.23;;
75037;Laerm;64247;51.540;5.854;2023-06-04T00:27:17;48.72;46.65;51.63;;
75037;Laerm;64247;51.540;5.854;2023-06-04T00:29:18;48.67;47.06;53.25;;
75037;Laerm;64247;51.540;5.854;2023-06-04T00:31:19;48.66;46.61;50.14;;
75037;Laerm;64247;51.540;5.854;2023-06-04T00:33:21;48.65;46.55;50.37;;
75037;Laerm;64247;51.540;5.854;2023-06-04T00:35:22;48.64;46.70;50.38;;
75037;Laerm;64247;51.540;5.854;2023-06-04T00:37:24;49.28;46.54;53.66;;
75037;Laerm;64247;51.540;5.854;2023-06-04T00:39:25;48.67;46.72;50.36;;
75037;Laerm;64247;51.540;5.854;2023-06-04T00:41:26;48.69;47.10;50.74;;
75037;Laerm;64247;51.540;5.854;2023-06-04T00:43:30;48.69;46.88;50.47;;
75037;Laerm;64247;51.540;5.854;2023-06-04T00:45:33;48.72;47.05;50.44;;
75037;Laerm;64247;51.540;5.854;2023-06-04T00:47:35;49.55;46.74;55.96;;
75037;Laerm;64247;51.540;5.854;2023-06-04T00:49:37;48.70;47.02;50.41;;
75037;Laerm;64247;51.540;5.854;2023-06-04T00:51:38;47.71;44.49;50.46;;
75037;Laerm;64247;51.540;5.854;2023-06-04T00:53:39;46.55;44.18;48.77;;
75037;Laerm;64247;51.540;5.854;2023-06-04T00:55:40;46.46;44.46;48.41;;
75037;Laerm;64247;51.540;5.854;2023-06-04T00:57:42;46.63;44.53;49.78;;
75037;Laerm;64247;51.540;5.854;2023-06-04T00:59:43;46.48;44.50;56.97;;
75037;Laerm;64247;51.540;5.854;2023-06-04T01:05:03;46.33;44.43;48.49;;
75037;Laerm;64247;51.540;5.854;2023-06-04T01:07:09;46.48;44.45;48.34;;
75037;Laerm;64247;51.540;5.854;2023-06-04T01:09:11;47.85;44.55;51.47;;
75037;Laerm;64247;51.540;5.854;2023-06-04T01:11:13;48.63;46.87;50.51;;
75037;Laerm;64247;51.540;5.854;2023-06-04T01:13:14;48.61;46.91;50.48;;
75037;Laerm;64247;51.540;5.854;2023-06-04T01:15:15;48.77;46.77;50.51;;
75037;Laerm;64247;51.540;5.854;2023-06-04T01:17:31;48.73;46.79;50.99;;
75037;Laerm;64247;51.540;5.854;2023-06-04T01:25:41;48.64;47.05;50.62;;
75037;Laerm;64247;51.540;5.854;2023-06-04T01:27:50;48.58;46.76;50.23;;
75037;Laerm;64247;51.540;5.854;2023-06-04T01:29:53;48.68;46.71;50.27;;
75037;Laerm;64247;51.540;5.854;2023-06-04T01:31:58;48.66;47.00;50.59;;
75037;Laerm;64247;51.540;5.854;2023-06-04T01:34:00;48.73;47.03;50.70;;
75037;Laerm;64247;51.540;5.854;2023-06-04T01:36:01;48.75;46.89;50.65;;
75037;Laerm;64247;51.540;5.854;2023-06-04T01:38:03;49.58;47.21;55.56;;
75037;Laerm;64247;51.540;5.854;2023-06-04T01:40:04;48.85;46.68;51.97;;
75037;Laerm;64247;51.540;5.854;2023-06-04T01:42:06;48.84;47.13;54.27;;
75037;Laerm;64247;51.540;5.854;2023-06-04T01:44:07;48.89;46.88;53.24;;
75037;Laerm;64247;51.540;5.854;2023-06-04T01:46:08;48.80;46.84;50.53;;
75037;Laerm;64247;51.540;5.854;2023-06-04T01:48:09;48.71;46.59;50.33;;
75037;Laerm;64247;51.540;5.854;2023-06-04T01:50:10;48.89;46.85;56.70;;
75037;Laerm;64247;51.540;5.854;2023-06-04T01:52:11;47.27;44.59;54.10;;
75037;Laerm;64247;51.540;5.854;2023-06-04T01:54:12;46.77;44.54;59.46;;
75037;Laerm;64247;51.540;5.854;2023-06-04T01:56:13;46.81;44.83;48.89;;
75037;Laerm;64247;51.540;5.854;2023-06-04T01:58:16;46.88;44.82;49.10;;
75037;Laerm;64247;51.540;5.854;2023-06-04T02:00:18;47.09;44.80;49.08;;
75037;Laerm;64247;51.540;5.854;2023-06-04T02:02:20;47.07;45.12;52.33;;
75037;Laerm;64247;51.540;5.854;2023-06-04T02:04:21;47.41;44.95;53.83;;
75037;Laerm;64247;51.540;5.854;2023-06-04T02:06:23;46.80;45.04;48.66;;
75037;Laerm;64247;51.540;5.854;2023-06-04T02:08:25;46.88;44.83;48.68;;
75037;Laerm;64247;51.540;5.854;2023-06-04T02:10:28;48.69;45.26;53.15;;
75037;Laerm;64247;51.540;5.854;2023-06-04T02:12:29;48.85;47.13;51.21;;
75037;Laerm;64247;51.540;5.854;2023-06-04T02:14:30;49.05;46.83;53.50;;
75037;Laerm;64247;51.540;5.854;2023-06-04T02:16:31;48.85;47.09;50.95;;
75037;Laerm;64247;51.540;5.854;2023-06-04T02:18:33;48.84;47.20;54.53;;
75037;Laerm;64247;51.540;5.854;2023-06-04T02:20:34;49.04;47.14;50.87;;
75037;Laerm;64247;51.540;5.854;2023-06-04T02:22:35;49.53;47.32;55.58;;
75037;Laerm;64247;51.540;5.854;2023-06-04T02:24:36;55.35;47.43;71.04;;
75037;Laerm;64247;51.540;5.854;2023-06-04T02:26:37;57.84;46.82;77.73;;
75037;Laerm;64247;51.540;5.854;2023-06-04T02:28:39;59.51;47.43;76.49;;
75037;Laerm;64247;51.540;5.854;2023-06-04T02:30:40;59.96;47.29;76.09;;
75037;Laerm;64247;51.540;5.854;2023-06-04T02:32:41;59.95;47.33;76.58;;
75037;Laerm;64247;51.540;5.854;2023-06-04T02:34:45;59.75;47.14;77.64;;
75037;Laerm;64247;51.540;5.854;2023-06-04T02:36:46;53.12;47.56;69.97;;
75037;Laerm;64247;51.540;5.854;2023-06-04T02:38:48;53.27;47.69;68.74;;
75037;Laerm;64247;51.540;5.854;2023-06-04T02:40:49;53.17;47.57;70.58;;
75037;Laerm;64247;51.540;5.854;2023-06-04T02:42:55;52.33;47.64;61.61;;
75037;Laerm;64247;51.540;5.854;2023-06-04T02:44:56;53.96;47.67;67.48;;
75037;Laerm;64247;51.540;5.854;2023-06-04T02:46:57;54.31;47.59;67.45;;
75037;Laerm;64247;51.540;5.854;2023-06-04T02:48:58;56.67;47.33;72.84;;
75037;Laerm;64247;51.540;5.854;2023-06-04T02:50:59;56.07;45.87;71.62;;
75037;Laerm;64247;51.540;5.854;2023-06-04T02:53:01;52.53;45.36;64.30;;
75037;Laerm;64247;51.540;5.854;2023-06-04T02:55:04;53.28;45.46;64.97;;
75037;Laerm;64247;51.540;5.854;2023-06-04T02:57:06;52.70;45.71;63.64;;
75037;Laerm;64247;51.540;5.854;2023-06-04T02:59:07;53.11;45.41;64.60;;
75037;Laerm;64247;51.540;5.854;2023-06-04T03:01:21;53.54;45.17;67.87;;
75037;Laerm;64247;51.540;5.854;2023-06-04T03:03:22;56.39;45.64;70.48;;
75037;Laerm;64247;51.540;5.854;2023-06-04T03:05:23;56.88;45.80;70.16;;
75037;Laerm;64247;51.540;5.854;2023-06-04T03:07:30;54.76;45.31;68.64;;
75037;Laerm;64247;51.540;5.854;2023-06-04T03:09:31;56.53;45.38;69.77;;
75037;Laerm;64247;51.540;5.854;2023-06-04T03:11:33;57.05;47.54;69.63;;
75037;Laerm;64247;51.540;5.854;2023-06-04T03:13:35;62.43;48.16;74.76;;
75037;Laerm;64247;51.540;5.854;2023-06-04T03:15:36;58.13;48.59;71.42;;
75037;Laerm;64247;51.540;5.854;2023-06-04T03:17:40;55.17;47.08;67.38;;
75037;Laerm;64247;51.540;5.854;2023-06-04T03:19:43;54.37;47.13;67.08;;
75037;Laerm;64247;51.540;5.854;2023-06-04T03:21:44;55.49;47.72;67.49;;
75037;Laerm;64247;51.540;5.854;2023-06-04T03:23:45;55.07;47.63;67.18;;
75037;Laerm;64247;51.540;5.854;2023-06-04T03:25:47;53.45;47.22;66.96;;
75037;Laerm;64247;51.540;5.854;2023-06-04T03:27:48;53.86;47.35;65.41;;
75037;Laerm;64247;51.540;5.854;2023-06-04T03:29:49;52.50;47.00;65.25;;
75037;Laerm;64247;51.540;5.854;2023-06-04T03:31:52;49.60;47.23;56.25;;
75037;Laerm;64247;51.540;5.854;2023-06-04T03:33:53;49.32;47.00;54.12;;
75037;Laerm;64247;51.540;5.854;2023-06-04T03:35:53;49.30;46.95;55.18;;
75037;Laerm;64247;51.540;5.854;2023-06-04T03:37:58;50.15;47.57;55.76;;
75037;Laerm;64247;51.540;5.854;2023-06-04T03:39:59;50.13;47.19;57.90;;
75037;Laerm;64247;51.540;5.854;2023-06-04T03:42:00;53.63;47.23;66.49;;
75037;Laerm;64247;51.540;5.854;2023-06-04T03:44:02;51.66;46.77;67.02;;
75037;Laerm;64247;51.540;5.854;2023-06-04T03:46:05;53.57;46.94;68.59;;
75037;Laerm;64247;51.540;5.854;2023-06-04T03:48:06;52.14;47.28;66.81;;
75037;Laerm;64247;51.540;5.854;2023-06-04T03:50:09;55.00;47.66;69.52;;
75037;Laerm;64247;51.540;5.854;2023-06-04T03:52:11;56.25;44.88;72.38;;
75037;Laerm;64247;51.540;5.854;2023-06-04T03:54:14;56.05;44.74;71.60;;
75037;Laerm;64247;51.540;5.854;2023-06-04T03:56:20;52.11;44.60;70.01;;
75037;Laerm;64247;51.540;5.854;2023-06-04T03:58:22;56.23;45.06;71.21;;
75037;Laerm;64247;51.540;5.854;2023-06-04T04:00:26;54.08;45.12;69.14;;
75037;Laerm;64247;51.540;5.854;2023-06-04T04:02:30;55.57;45.28;69.79;;
75037;Laerm;64247;51.540;5.854;2023-06-04T04:04:31;54.93;44.62;68.73;;
75037;Laerm;64247;51.540;5.854;2023-06-04T04:06:33;54.82;45.17;69.33;;
75037;Laerm;64247;51.540;5.854;2023-06-04T04:08:34;56.01;44.67;69.53;;
75037;Laerm;64247;51.540;5.854;2023-06-04T04:10:36;56.20;45.61;71.77;;
75037;Laerm;64247;51.540;5.854;2023-06-04T04:12:38;55.88;47.20;69.35;;
75037;Laerm;64247;51.540;5.854;2023-06-04T04:14:39;55.15;47.28;70.67;;
75037;Laerm;64247;51.540;5.854;2023-06-04T04:16:40;58.53;47.08;71.95;;
75037;Laerm;64247;51.540;5.854;2023-06-04T04:18:42;56.37;47.09;72.14;;
75037;Laerm;64247;51.540;5.854;2023-06-04T04:20:47;56.72;47.19;71.95;;
75037;Laerm;64247;51.540;5.854;2023-06-04T04:22:48;55.18;47.42;69.97;;
75037;Laerm;64247;51.540;5.854;2023-06-04T04:24:51;60.67;54.58;71.62;;
75037;Laerm;64247;51.540;5.854;2023-06-04T04:26:53;56.56;47.11;69.00;;
75037;Laerm;64247;51.540;5.854;2023-06-04T04:28:55;55.67;47.45;69.95;;
75037;Laerm;64247;51.540;5.854;2023-06-04T04:31:04;56.93;47.56;71.85;;
75037;Laerm;64247;51.540;5.854;2023-06-04T04:33:08;56.15;47.68;70.10;;
75037;Laerm;64247;51.540;5.854;2023-06-04T04:35:15;53.96;47.36;70.90;;
75037;Laerm;64247;51.540;5.854;2023-06-04T04:37:19;53.60;47.57;66.73;;
75037;Laerm;64247;51.540;5.854;2023-06-04T04:39:24;51.01;47.35;66.08;;
75037;Laerm;64247;51.540;5.854;2023-06-04T04:41:27;50.44;46.97;61.84;;
75037;Laerm;64247;51.540;5.854;2023-06-04T04:43:33;51.80;47.39;63.25;;
75037;Laerm;64247;51.540;5.854;2023-06-04T04:45:39;51.40;47.54;63.35;;
75037;Laerm;64247;51.540;5.854;2023-06-04T04:47:41;50.14;47.39;59.07;;
75037;Laerm;64247;51.540;5.854;2023-06-04T04:49:42;50.45;47.38;59.92;;
75037;Laerm;64247;51.540;5.854;2023-06-04T04:51:43;54.33;45.43;69.99;;
75037;Laerm;64247;51.540;5.854;2023-06-04T04:53:44;52.38;45.13;63.09;;
75037;Laerm;64247;51.540;5.854;2023-06-04T04:55:46;54.05;45.30;67.46;;
75037;Laerm;64247;51.540;5.854;2023-06-04T04:57:47;53.11;44.70;69.35;;
75037;Laerm;64247;51.540;5.854;2023-06-04T04:59:49;54.57;44.69;68.63;;
75037;Laerm;64247;51.540;5.854;2023-06-04T05:01:50;55.40;44.59;68.57;;
75037;Laerm;64247;51.540;5.854;2023-06-04T05:03:52;54.43;44.78;69.48;;
75037;Laerm;64247;51.540;5.854;2023-06-04T05:05:53;55.74;44.74;69.83;;
75037;Laerm;64247;51.540;5.854;2023-06-04T05:07:54;53.78;44.63;68.56;;
75037;Laerm;64247;51.540;5.854;2023-06-04T05:10:00;56.90;44.97;72.65;;
75037;Laerm;64247;51.540;5.854;2023-06-04T05:12:02;55.63;46.91;72.85;;
75037;Laerm;64247;51.540;5.854;2023-06-04T05:14:04;56.44;47.07;72.44;;
75037;Laerm;64247;51.540;5.854;2023-06-04T05:16:07;57.07;47.42;73.38;;
75037;Laerm;64247;51.540;5.854;2023-06-04T05:18:09;51.04;47.07;61.69;;
75037;Laerm;64247;51.540;5.854;2023-06-04T05:20:13;50.83;47.08;60.62;;
75037;Laerm;64247;51.540;5.854;2023-06-04T05:22:18;52.30;47.15;64.91;;
75037;Laerm;64247;51.540;5.854;2023-06-04T05:24:19;53.46;47.19;67.68;;
75037;Laerm;64247;51.540;5.854;2023-06-04T05:26:21;52.38;46.82;65.18;;
75037;Laerm;64247;51.540;5.854;2023-06-04T05:28:24;54.68;46.79;68.32;;
75037;Laerm;64247;51.540;5.854;2023-06-04T05:30:26;55.37;47.26;70.86;;
75037;Laerm;64247;51.540;5.854;2023-06-04T05:32:27;55.25;47.07;69.13;;
75037;Laerm;64247;51.540;5.854;2023-06-04T05:34:31;54.18;47.14;70.81;;
75037;Laerm;64247;51.540;5.854;2023-06-04T05:36:33;53.91;47.19;68.05;;
75037;Laerm;64247;51.540;5.854;2023-06-04T05:38:37;56.53;47.06;72.89;;
75037;Laerm;64247;51.540;5.854;2023-06-04T05:40:43;54.34;47.36;73.61;;
75037;Laerm;64247;51.540;5.854;2023-06-04T05:42:44;50.78;47.27;60.58;;
75037;Laerm;64247;51.540;5.854;2023-06-04T05:44:45;50.21;47.45;57.65;;
75037;Laerm;64247;51.540;5.854;2023-06-04T05:46:49;50.27;47.17;60.31;;
75037;Laerm;64247;51.540;5.854;2023-06-04T05:48:50;51.88;47.08;63.53;;
75037;Laerm;64247;51.540;5.854;2023-06-04T05:50:52;52.07;46.62;63.33;;
75037;Laerm;64247;51.540;5.854;2023-06-04T05:52:54;54.13;45.22;69.52;;
75037;Laerm;64247;51.540;5.854;2023-06-04T05:54:56;56.09;45.18;69.96;;
75037;Laerm;64247;51.540;5.854;2023-06-04T05:56:56;54.44;44.78;68.26;;
75037;Laerm;64247;51.540;5.854;2023-06-04T05:58:57;52.33;45.40;64.66;;
75037;Laerm;64247;51.540;5.854;2023-06-04T06:01:00;61.31;45.44;82.23;;
75037;Laerm;64247;51.540;5.854;2023-06-04T06:03:01;60.06;45.01;81.56;;
75037;Laerm;64247;51.540;5.854;2023-06-04T06:05:12;51.47;45.22;61.84;;
75037;Laerm;64247;51.540;5.854;2023-06-04T06:07:13;56.20;45.10;71.20;;
75037;Laerm;64247;51.540;5.854;2023-06-04T06:09:17;54.99;45.02;68.97;;
75037;Laerm;64247;51.540;5.854;2023-06-04T06:11:19;53.53;47.20;67.11;;
75037;Laerm;64247;51.540;5.854;2023-06-04T06:13:20;52.77;47.37;63.14;;
75037;Laerm;64247;51.540;5.854;2023-06-04T06:15:21;53.74;47.04;67.76;;
75037;Laerm;64247;51.540;5.854;2023-06-04T06:17:23;55.44;47.09;70.72;;
75037;Laerm;64247;51.540;5.854;2023-06-04T06:19:24;55.47;46.82;70.48;;
75037;Laerm;64247;51.540;5.854;2023-06-04T06:21:25;54.81;47.22;69.83;;
75037;Laerm;64247;51.540;5.854;2023-06-04T06:23:26;52.71;47.21;65.48;;
75037;Laerm;64247;51.540;5.854;2023-06-04T06:25:27;53.14;47.22;67.54;;
75037;Laerm;64247;51.540;5.854;2023-06-04T06:27:34;53.27;47.09;68.99;;
75037;Laerm;64247;51.540;5.854;2023-06-04T06:29:36;55.28;46.94;69.50;;
75037;Laerm;64247;51.540;5.854;2023-06-04T06:31:38;57.12;47.07;74.39;;
75037;Laerm;64247;51.540;5.854;2023-06-04T06:33:39;55.33;46.91;69.91;;
75037;Laerm;64247;51.540;5.854;2023-06-04T06:35:42;55.21;47.46;73.21;;
75037;Laerm;64247;51.540;5.854;2023-06-04T06:37:46;58.42;47.20;73.83;;
75037;Laerm;64247;51.540;5.854;2023-06-04T06:39:47;56.23;47.07;72.73;;
75037;Laerm;64247;51.540;5.854;2023-06-04T06:41:48;51.07;47.16;63.62;;
75037;Laerm;64247;51.540;5.854;2023-06-04T06:43:54;51.57;47.06;63.85;;
75037;Laerm;64247;51.540;5.854;2023-06-04T06:45:55;50.74;47.12;61.06;;
75037;Laerm;64247;51.540;5.854;2023-06-04T06:47:56;49.91;46.73;62.21;;
75037;Laerm;64247;51.540;5.854;2023-06-04T06:49:57;51.72;47.25;66.67;;
75037;Laerm;64247;51.540;5.854;2023-06-04T06:51:58;51.54;45.65;67.55;;
75037;Laerm;64247;51.540;5.854;2023-06-04T06:53:58;51.13;44.59;70.05;;
75037;Laerm;64247;51.540;5.854;2023-06-04T06:55:59;49.64;44.66;62.61;;
75037;Laerm;64247;51.540;5.854;2023-06-04T06:58:00;50.88;44.63;72.21;;
75037;Laerm;64247;51.540;5.854;2023-06-04T07:00:01;53.21;44.73;70.23;;
75037;Laerm;64247;51.540;5.854;2023-06-04T07:02:05;51.51;45.81;62.54;;
75037;Laerm;64247;51.540;5.854;2023-06-04T07:04:07;50.99;45.45;68.32;;
75037;Laerm;64247;51.540;5.854;2023-06-04T07:06:08;50.35;44.79;64.67;;
75037;Laerm;64247;51.540;5.854;2023-06-04T07:08:09;53.87;44.85;68.65;;
75037;Laerm;64247;51.540;5.854;2023-06-04T07:10:10;52.94;45.25;67.83;;
75037;Laerm;64247;51.540;5.854;2023-06-04T07:12:11;53.59;47.24;67.87;;
75037;Laerm;64247;51.540;5.854;2023-06-04T07:14:12;52.93;46.74;65.37;;
75037;Laerm;64247;51.540;5.854;2023-06-04T07:16:13;49.81;46.40;61.63;;
75037;Laerm;64247;51.540;5.854;2023-06-04T07:18:14;56.77;46.92;73.19;;
75037;Laerm;64247;51.540;5.854;2023-06-04T07:20:15;51.22;46.49;65.48;;
75037;Laerm;64247;51.540;5.854;2023-06-04T07:22:16;52.22;46.30;67.52;;
75037;Laerm;64247;51.540;5.854;2023-06-04T07:24:16;52.42;47.37;62.96;;
75037;Laerm;64247;51.540;5.854;2023-06-04T07:26:20;50.43;46.55;72.66;;
75037;Laerm;64247;51.540;5.854;2023-06-04T07:28:22;50.49;46.69;66.93;;
75037;Laerm;64247;51.540;5.854;2023-06-04T07:30:27;50.83;47.07;60.16;;
75037;Laerm;64247;51.540;5.854;2023-06-04T07:32:31;51.61;46.95;62.87;;
75037;Laerm;64247;51.540;5.854;2023-06-04T07:34:32;54.32;46.98;66.13;;
75037;Laerm;64247;51.540;5.854;2023-06-04T07:36:33;57.27;47.31;71.64;;
75037;Laerm;64247;51.540;5.854;2023-06-04T07:38:34;51.54;46.56;64.98;;
75037;Laerm;64247;51.540;5.854;2023-06-04T07:40:35;52.79;46.60;65.47;;
75037;Laerm;64247;51.540;5.854;2023-06-04T07:42:36;54.51;46.72;70.06;;
75037;Laerm;64247;51.540;5.854;2023-06-04T07:44:37;55.06;46.72;69.75;;
75037;Laerm;64247;51.540;5.854;2023-06-04T07:46:38;54.03;46.63;66.67;;
75037;Laerm;64247;51.540;5.854;2023-06-04T07:48:39;53.21;46.68;69.00;;
75037;Laerm;64247;51.540;5.854;2023-06-04T07:50:40;54.52;46.59;71.77;;
75037;Laerm;64247;51.540;5.854;2023-06-04T07:52:41;52.13;44.30;67.20;;
75037;Laerm;64247;51.540;5.854;2023-06-04T07:54:42;53.75;44.55;72.09;;
75037;Laerm;64247;51.540;5.854;2023-06-04T07:56:43;55.58;45.05;71.17;;
75037;Laerm;64247;51.540;5.854;2023-06-04T07:58:44;54.46;45.22;68.81;;
75037;Laerm;64247;51.540;5.854;2023-06-04T08:00:46;64.18;55.27;80.60;;
75037;Laerm;64247;51.540;5.854;2023-06-04T08:02:47;60.41;45.47;79.63;;
75037;Laerm;64247;51.540;5.854;2023-06-04T08:04:49;56.19;44.74;70.51;;
75037;Laerm;64247;51.540;5.854;2023-06-04T08:06:51;51.00;44.46;69.90;;
75037;Laerm;64247;51.540;5.854;2023-06-04T08:08:52;50.05;43.74;63.08;;
75037;Laerm;64247;51.540;5.854;2023-06-04T08:10:53;51.85;46.12;63.18;;
75037;Laerm;64247;51.540;5.854;2023-06-04T08:12:54;49.93;46.41;62.59;;
75037;Laerm;64247;51.540;5.854;2023-06-04T08:14:55;49.59;45.73;59.03;;
75037;Laerm;64247;51.540;5.854;2023-06-04T08:16:58;48.74;45.89;58.56;;
75037;Laerm;64247;51.540;5.854;2023-06-04T08:18:59;50.93;46.02;61.86;;
75037;Laerm;64247;51.540;5.854;2023-06-04T08:20:59;53.23;46.34;69.78;;
75037;Laerm;64247;51.540;5.854;2023-06-04T08:23:00;54.45;45.92;66.14;;
75037;Laerm;64247;51.540;5.854;2023-06-04T08:25:02;54.38;46.76;67.46;;
75037;Laerm;64247;51.540;5.854;2023-06-04T08:27:05;52.15;45.84;64.40;;
75037;Laerm;64247;51.540;5.854;2023-06-04T08:29:08;53.79;45.79;69.19;;
75037;Laerm;64247;51.540;5.854;2023-06-04T08:31:09;54.76;46.04;68.53;;
75037;Laerm;64247;51.540;5.854;2023-06-04T08:33:11;53.20;46.25;66.25;;
75037;Laerm;64247;51.540;5.854;2023-06-04T08:35:11;53.66;46.90;67.09;;
75037;Laerm;64247;51.540;5.854;2023-06-04T08:37:12;55.75;46.42;70.74;;
75037;Laerm;64247;51.540;5.854;2023-06-04T08:39:13;53.25;46.08;69.40;;
75037;Laerm;64247;51.540;5.854;2023-06-04T08:41:20;51.80;45.95;65.99;;
75037;Laerm;64247;51.540;5.854;2023-06-04T08:43:24;52.22;46.11;64.60;;
75037;Laerm;64247;51.540;5.854;2023-06-04T08:45:25;51.37;45.84;63.35;;
75037;Laerm;64247;51.540;5.854;2023-06-04T08:47:29;50.54;45.66;61.06;;
75037;Laerm;64247;51.540;5.854;2023-06-04T08:49:35;50.96;45.96;61.42;;
75037;Laerm;64247;51.540;5.854;2023-06-04T08:51:37;52.90;45.72;69.55;;
75037;Laerm;64247;51.540;5.854;2023-06-04T08:53:38;49.84;44.18;61.90;;
75037;Laerm;64247;51.540;5.854;2023-06-04T08:55:39;51.33;43.93;74.07;;
75037;Laerm;64247;51.540;5.854;2023-06-04T08:57:40;48.88;44.17;60.29;;
75037;Laerm;64247;51.540;5.854;2023-06-04T08:59:42;48.99;43.89;62.55;;
75037;Laerm;64247;51.540;5.854;2023-06-04T09:01:44;51.79;43.86;64.27;;
75037;Laerm;64247;51.540;5.854;2023-06-04T09:03:46;53.26;44.63;65.11;;
75037;Laerm;64247;51.540;5.854;2023-06-04T09:05:49;55.70;46.65;65.43;;
75037;Laerm;64247;51.540;5.854;2023-06-04T09:07:55;50.82;44.86;61.86;;
75037;Laerm;64247;51.540;5.854;2023-06-04T09:10:01;52.77;45.91;63.27;;
75037;Laerm;64247;51.540;5.854;2023-06-04T09:12:05;52.59;45.93;65.87;;
75037;Laerm;64247;51.540;5.854;2023-06-04T09:14:14;51.59;46.57;66.29;;
75037;Laerm;64247;51.540;5.854;2023-06-04T09:16:17;53.88;46.06;65.94;;
75037;Laerm;64247;51.540;5.854;2023-06-04T09:18:18;50.94;46.41;64.18;;
75037;Laerm;64247;51.540;5.854;2023-06-04T09:20:22;52.63;45.86;65.28;;
75037;Laerm;64247;51.540;5.854;2023-06-04T09:22:42;55.16;46.72;72.89;;
75037;Laerm;64247;51.540;5.854;2023-06-04T09:24:46;50.59;45.93;67.21;;
75037;Laerm;64247;51.540;5.854;2023-06-04T09:26:51;49.27;45.63;64.61;;
75037;Laerm;64247;51.540;5.854;2023-06-04T09:28:52;49.04;45.93;56.88;;
75037;Laerm;64247;51.540;5.854;2023-06-04T09:30:55;49.68;46.16;58.11;;
75037;Laerm;64247;51.540;5.854;2023-06-04T09:33:09;49.58;45.90;59.25;;
75037;Laerm;64247;51.540;5.854;2023-06-04T09:35:34;56.90;46.65;76.51;;
75037;Laerm;64247;51.540;5.854;2023-06-04T09:37:36;51.85;45.96;62.45;;
75037;Laerm;64247;51.540;5.854;2023-06-04T09:39:37;50.93;45.51;61.99;;
75037;Laerm;64247;51.540;5.854;2023-06-04T09:41:37;51.74;46.05;64.79;;
75037;Laerm;64247;51.540;5.854;2023-06-04T09:43:41;52.78;47.05;64.94;;
75037;Laerm;64247;51.540;5.854;2023-06-04T09:45:44;51.43;45.88;61.90;;
75037;Laerm;64247;51.540;5.854;2023-06-04T09:47:45;52.61;46.24;61.94;;
75037;Laerm;64247;51.540;5.854;2023-06-04T09:49:47;52.72;46.14;64.85;;
75037;Laerm;64247;51.540;5.854;2023-06-04T09:51:51;51.49;44.60;63.69;;
75037;Laerm;64247;51.540;5.854;2023-06-04T09:54:09;52.34;44.40;68.64;;
75037;Laerm;64247;51.540;5.854;2023-06-04T09:56:10;51.66;43.92;63.12;;
75037;Laerm;64247;51.540;5.854;2023-06-04T09:58:11;51.47;44.41;63.71;;
75037;Laerm;64247;51.540;5.854;2023-06-04T10:00:24;52.30;43.27;68.42;;
75037;Laerm;64247;51.540;5.854;2023-06-04T10:02:29;50.76;43.60;68.40;;
75037;Laerm;64247;51.540;5.854;2023-06-04T10:04:33;51.16;45.85;66.58;;
75037;Laerm;64247;51.540;5.854;2023-06-04T10:06:36;50.70;44.49;62.98;;
75037;Laerm;64247;51.540;5.854;2023-06-04T10:08:42;51.22;43.81;66.13;;
75037;Laerm;64247;51.540;5.854;2023-06-04T10:10:44;49.67;45.28;63.35;;
75037;Laerm;64247;51.540;5.854;2023-06-04T10:13:00;52.00;46.40;62.85;;
75037;Laerm;64247;51.540;5.854;2023-06-04T10:15:10;51.99;46.08;63.99;;
75037;Laerm;64247;51.540;5.854;2023-06-04T10:17:13;54.92;46.87;69.85;;
75037;Laerm;64247;51.540;5.854;2023-06-04T10:19:17;53.21;45.74;69.92;;
75037;Laerm;64247;51.540;5.854;2023-06-04T10:21:19;53.47;46.38;69.97;;
75037;Laerm;64247;51.540;5.854;2023-06-04T10:23:21;52.90;46.17;69.42;;
75037;Laerm;64247;51.540;5.854;2023-06-04T10:25:23;50.38;45.60;61.89;;
75037;Laerm;64247;51.540;5.854;2023-06-04T10:27:24;50.77;45.13;71.65;;
75037;Laerm;64247;51.540;5.854;2023-06-04T10:29:25;51.23;46.41;64.49;;
75037;Laerm;64247;51.540;5.854;2023-06-04T10:31:26;51.97;45.79;64.15;;
75037;Laerm;64247;51.540;5.854;2023-06-04T10:33:27;52.88;46.73;65.84;;
75037;Laerm;64247;51.540;5.854;2023-06-04T10:35:36;56.68;46.08;76.38;;
75037;Laerm;64247;51.540;5.854;2023-06-04T10:37:37;58.77;46.08;74.64;;
75037;Laerm;64247;51.540;5.854;2023-06-04T10:39:38;57.24;46.06;71.04;;
75037;Laerm;64247;51.540;5.854;2023-06-04T10:41:39;56.59;46.06;70.77;;
75037;Laerm;64247;51.540;5.854;2023-06-04T10:43:40;53.64;46.18;68.58;;
75037;Laerm;64247;51.540;5.854;2023-06-04T10:45:41;59.98;46.36;77.24;;
75037;Laerm;64247;51.540;5.854;2023-06-04T10:47:42;58.60;47.12;75.87;;
75037;Laerm;64247;51.540;5.854;2023-06-04T10:49:44;53.77;46.43;69.09;;
75037;Laerm;64247;51.540;5.854;2023-06-04T10:51:45;51.36;44.48;65.53;;
75037;Laerm;64247;51.540;5.854;2023-06-04T10:53:46;49.47;43.58;61.54;;
75037;Laerm;64247;51.540;5.854;2023-06-04T10:55:48;50.09;43.59;63.15;;
75037;Laerm;64247;51.540;5.854;2023-06-04T10:57:57;56.95;43.68;78.26;;
75037;Laerm;64247;51.540;5.854;2023-06-04T11:00:00;52.46;43.63;70.72;;
75037;Laerm;64247;51.540;5.854;2023-06-04T11:02:11;55.40;43.63;72.76;;
75037;Laerm;64247;51.540;5.854;2023-06-04T11:04:38;51.11;44.97;66.68;;
75037;Laerm;64247;51.540;5.854;2023-06-04T11:06:39;48.83;44.21;64.16;;
75037;Laerm;64247;51.540;5.854;2023-06-04T11:08:41;50.48;44.29;59.70;;
75037;Laerm;64247;51.540;5.854;2023-06-04T11:10:44;50.64;45.74;60.73;;
75037;Laerm;64247;51.540;5.854;2023-06-04T11:12:48;50.49;45.89;60.31;;
75037;Laerm;64247;51.540;5.854;2023-06-04T11:14:57;49.92;45.97;58.65;;
75037;Laerm;64247;51.540;5.854;2023-06-04T11:17:14;48.91;45.35;58.41;;
75037;Laerm;64247;51.540;5.854;2023-06-04T11:19:15;49.36;45.41;60.95;;
75037;Laerm;64247;51.540;5.854;2023-06-04T11:21:16;50.00;45.63;62.51;;
75037;Laerm;64247;51.540;5.854;2023-06-04T11:23:17;50.00;45.49;63.25;;
75037;Laerm;64247;51.540;5.854;2023-06-04T11:25:18;54.45;46.10;70.34;;
75037;Laerm;64247;51.540;5.854;2023-06-04T11:27:19;51.65;45.93;62.73;;
75037;Laerm;64247;51.540;5.854;2023-06-04T11:29:20;52.60;46.00;65.88;;
75037;Laerm;64247;51.540;5.854;2023-06-04T11:31:21;51.05;45.62;68.09;;
75037;Laerm;64247;51.540;5.854;2023-06-04T11:33:23;51.07;45.20;66.57;;
75037;Laerm;64247;51.540;5.854;2023-06-04T11:35:24;52.17;45.47;64.34;;